createdAt,value
2022-10-23T00:00:16.602Z,99447.41
2022-10-23T00:02:43.418Z,99446.19
2022-10-23T00:05:11.452Z,99438.13
2022-10-23T00:07:37.865Z,99438.81
2022-10-23T00:10:04.524Z,99436.41
2022-10-23T00:12:31.112Z,99427.16
2022-10-23T00:14:57.460Z,99422.09
2022-10-23T00:17:23.842Z,99416.38
2022-10-23T00:19:50.201Z,99411.16
2022-10-23T00:22:17.822Z,99396.38
2022-10-23T00:24:44.155Z,99393.00
2022-10-23T00:27:10.474Z,99393.06
2022-10-23T00:29:36.962Z,99395.06
2022-10-23T00:32:03.365Z,99382.16
2022-10-23T00:34:29.727Z,99371.94
2022-10-23T00:36:56.067Z,99372.63
2022-10-23T00:39:23.784Z,99360.72
2022-10-23T00:41:50.140Z,99354.84
2022-10-23T00:44:31.275Z,99345.94
2022-10-23T00:46:58.156Z,99345.63
2022-10-23T00:49:24.563Z,99345.09
2022-10-23T00:51:52.032Z,99348.63
2022-10-23T00:54:24.121Z,99352.84
2022-10-23T00:56:54.486Z,99337.06
2022-10-23T00:59:20.820Z,99329.31
2022-10-23T01:01:47.420Z,99337.50
2022-10-23T01:04:14.021Z,99330.78
2022-10-23T01:06:42.472Z,99325.91
2022-10-23T01:09:12.666Z,99319.00
2022-10-23T01:11:40.750Z,99306.75
2022-10-23T01:14:11.965Z,99307.25
2022-10-23T01:16:41.782Z,99305.06
2022-10-23T01:19:11.494Z,99305.91
2022-10-23T01:21:40.807Z,99303.59
2022-10-23T01:24:12.076Z,99292.34
2022-10-23T01:26:55.085Z,99296.56
2022-10-23T01:29:25.610Z,99288.19
2022-10-23T01:31:56.277Z,99289.66
2022-10-23T01:34:27.047Z,99278.09
2022-10-23T01:36:54.521Z,99277.75
2022-10-23T01:39:22.884Z,99270.38
2022-10-23T01:41:51.582Z,99264.00
2022-10-23T01:44:21.972Z,99262.66
2022-10-23T01:46:50.204Z,99259.81
2022-10-23T01:49:17.577Z,99266.34
2022-10-23T01:51:46.527Z,99258.59
2022-10-23T01:54:14.510Z,99253.72
2022-10-23T01:56:43.041Z,99247.84
2022-10-23T01:59:11.069Z,99262.63
2022-10-23T02:01:39.993Z,99257.56
2022-10-23T02:04:09.509Z,99243.47
2022-10-23T02:06:35.961Z,99241.78
2022-10-23T02:09:02.525Z,99242.81
2022-10-23T02:11:30.160Z,99252.72
2022-10-23T02:13:59.845Z,99245.34
2022-10-23T02:16:28.800Z,99239.63
2022-10-23T02:19:02.333Z,99226.72
2022-10-23T02:21:32.143Z,99214.81
2022-10-23T02:24:01.260Z,99212.78
2022-10-23T02:26:31.283Z,99200.88
2022-10-23T02:29:00.081Z,99199.00
2022-10-23T02:31:26.535Z,99199.69
2022-10-23T02:33:52.938Z,99199.34
2022-10-23T02:36:19.538Z,99197.19
2022-10-23T02:38:47.258Z,99191.81
2022-10-23T02:41:19.059Z,99186.75
2022-10-23T02:43:50.008Z,99189.63
2022-10-23T02:46:21.268Z,99182.22
2022-10-23T02:48:53.642Z,99182.72
2022-10-23T02:51:22.004Z,99181.03
2022-10-23T02:56:32.649Z,99166.28
2022-10-23T02:59:06.170Z,99160.06
2022-10-23T03:01:36.273Z,99164.75
2022-10-23T03:04:05.429Z,99167.13
2022-10-23T03:06:32.380Z,99156.69
2022-10-23T03:09:02.155Z,99142.94
2022-10-23T03:11:28.504Z,99150.84
2022-10-23T03:13:54.859Z,99134.34
2022-10-23T03:16:21.164Z,99119.75
2022-10-23T03:18:47.580Z,99116.91
2022-10-23T03:21:13.962Z,99110.50
2022-10-23T03:23:40.281Z,99118.25
2022-10-23T03:26:07.897Z,99108.13
2022-10-23T03:28:34.253Z,99092.72
2022-10-23T03:31:00.604Z,99093.25
2022-10-23T03:33:26.974Z,99097.63
2022-10-23T03:35:53.335Z,99089.06
2022-10-23T03:38:20.641Z,99092.06
2022-10-23T03:40:47.038Z,99083.53
2022-10-23T03:43:14.688Z,99077.66
2022-10-23T03:45:41.139Z,99068.91
2022-10-23T03:48:07.843Z,99055.31
2022-10-23T03:50:34.611Z,99060.00
2022-10-23T03:53:01.010Z,99065.88
2022-10-23T03:55:27.391Z,99070.72
2022-10-23T03:57:54.111Z,99083.81
2022-10-23T04:00:21.823Z,99073.91
2022-10-23T04:02:48.555Z,99075.44
2022-10-23T04:05:15.078Z,99086.19
2022-10-23T04:07:41.492Z,99102.09
2022-10-23T04:10:08.779Z,99110.84
2022-10-23T04:12:35.255Z,99105.13
2022-10-23T04:15:01.596Z,99099.59
2022-10-23T04:17:29.342Z,99086.00
2022-10-23T04:19:56.164Z,99089.22
2022-10-23T04:22:24.790Z,99079.97
2022-10-23T04:24:53.993Z,99080.31
2022-10-23T04:27:20.297Z,99080.66
2022-10-23T04:29:46.628Z,99084.53
2022-10-23T04:32:12.929Z,99092.75
2022-10-23T04:34:40.688Z,99083.34
2022-10-23T04:37:07.054Z,99084.69
2022-10-23T04:39:33.454Z,99083.00
2022-10-23T04:41:59.895Z,99084.38
2022-10-23T04:44:26.324Z,99075.78
2022-10-23T04:46:52.840Z,99080.16
2022-10-23T04:49:19.189Z,99073.59
2022-10-23T04:51:46.770Z,99074.09
2022-10-23T04:54:13.308Z,99066.69
2022-10-23T04:56:39.630Z,99076.44
2022-10-23T05:01:37.330Z,99072.56
2022-10-23T05:04:03.863Z,99077.78
2022-10-23T05:06:30.188Z,99071.88
2022-10-23T05:08:57.868Z,99086.34
2022-10-23T05:11:24.379Z,99085.84
2022-10-23T05:13:50.762Z,99089.06
2022-10-23T05:16:26.782Z,99093.09
2022-10-23T05:18:53.298Z,99090.75
2022-10-23T05:21:21.956Z,99085.72
2022-10-23T05:23:48.554Z,99079.00
2022-10-23T05:26:16.309Z,99074.13
2022-10-23T05:28:42.665Z,99080.50
2022-10-23T05:31:09.178Z,99096.94
2022-10-23T05:33:36.127Z,99091.22
2022-10-23T05:36:02.989Z,99091.91
2022-10-23T05:38:32.337Z,99094.25
2022-10-23T05:40:58.795Z,99086.84
2022-10-23T05:43:26.483Z,99088.56
2022-10-23T05:45:52.813Z,99081.97
2022-10-23T05:48:30.106Z,99082.81
2022-10-23T05:51:04.428Z,99077.09
2022-10-23T05:53:30.772Z,99059.13
2022-10-23T05:55:57.130Z,99054.91
2022-10-23T05:58:23.693Z,99051.59
2022-10-23T06:00:51.329Z,99053.81
2022-10-23T06:03:17.698Z,99054.31
2022-10-23T06:05:49.056Z,99065.41
2022-10-23T06:08:15.386Z,99065.06
2022-10-23T06:10:41.726Z,99066.91
2022-10-23T06:13:08.053Z,99068.91
2022-10-23T06:15:34.619Z,99079.00
2022-10-23T06:18:02.832Z,99079.97
2022-10-23T06:20:29.285Z,99065.19
2022-10-23T06:22:55.954Z,99069.59
2022-10-23T06:25:22.315Z,99065.53
2022-10-23T06:27:48.747Z,99072.25
2022-10-23T06:30:15.199Z,99066.53
2022-10-23T06:32:41.964Z,99060.16
2022-10-23T06:35:09.988Z,99056.63
2022-10-23T06:37:36.552Z,99045.53
2022-10-23T06:40:02.992Z,99043.16
2022-10-23T06:42:29.454Z,99040.66
2022-10-23T06:44:55.772Z,99041.69
2022-10-23T06:47:22.217Z,99030.47
2022-10-23T06:49:48.623Z,99043.41
2022-10-23T06:52:34.931Z,99039.38
2022-10-23T06:55:02.811Z,99047.78
2022-10-23T06:57:29.294Z,99036.69
2022-10-23T06:59:55.607Z,99043.06
2022-10-23T07:02:22.083Z,99032.53
2022-10-23T07:04:48.433Z,99022.78
2022-10-23T07:07:16.107Z,99022.09
2022-10-23T07:09:42.439Z,99023.44
2022-10-23T07:12:08.750Z,99030.97
2022-10-23T07:14:35.176Z,99027.94
2022-10-23T07:17:01.678Z,99020.53
2022-10-23T07:19:28.023Z,99015.66
2022-10-23T07:21:54.565Z,99018.34
2022-10-23T07:24:22.174Z,99025.22
2022-10-23T07:26:48.625Z,99032.75
2022-10-23T07:29:15.054Z,99042.50
2022-10-23T07:31:41.684Z,99048.53
2022-10-23T07:34:09.305Z,99038.66
2022-10-23T07:36:35.626Z,99046.22
2022-10-23T07:39:02.014Z,99047.41
2022-10-23T07:41:29.787Z,99042.56
2022-10-23T07:43:56.427Z,99051.97
2022-10-23T07:46:22.894Z,99062.88
2022-10-23T07:48:49.203Z,99059.69
2022-10-23T07:51:16.497Z,99057.34
2022-10-23T07:53:43.246Z,99067.59
2022-10-23T07:56:12.155Z,99061.72
2022-10-23T07:58:40.040Z,99071.44
2022-10-23T08:01:13.238Z,99062.03
2022-10-23T08:03:39.675Z,99066.41
2022-10-23T08:06:06.413Z,99064.88
2022-10-23T08:08:32.780Z,99079.63
2022-10-23T08:10:59.135Z,99057.97
2022-10-23T08:13:26.368Z,99052.59
2022-10-23T08:15:53.986Z,99051.44
2022-10-23T08:18:20.317Z,99048.56
2022-10-23T08:20:47.589Z,99050.91
2022-10-23T08:23:14.570Z,99052.41
2022-10-23T08:25:40.982Z,99053.91
2022-10-23T08:28:08.243Z,99059.47
2022-10-23T08:30:34.938Z,99055.44
2022-10-23T08:33:04.075Z,99051.97
2022-10-23T08:35:30.388Z,99039.03
2022-10-23T08:37:57.208Z,99031.97
2022-10-23T08:40:24.595Z,99038.69
2022-10-23T08:42:53.702Z,99043.44
2022-10-23T08:45:26.541Z,99034.00
2022-10-23T08:47:54.215Z,99034.88
2022-10-23T08:50:25.317Z,99026.59
2022-10-23T08:52:54.894Z,99016.19
2022-10-23T08:55:23.729Z,99020.03
2022-10-23T08:57:55.313Z,99002.75
2022-10-23T09:00:21.774Z,99002.59
2022-10-23T09:02:49.685Z,99003.22
2022-10-23T09:05:18.730Z,98996.69
2022-10-23T09:07:52.440Z,99009.78
2022-10-23T09:10:25.671Z,99003.88
2022-10-23T09:12:52.016Z,98999.34
2022-10-23T09:15:22.791Z,99006.41
2022-10-23T09:17:53.978Z,99002.50
2022-10-23T09:20:21.855Z,98997.53
2022-10-23T09:22:50.278Z,99003.91
2022-10-23T09:25:18.317Z,98985.00
2022-10-23T09:27:46.111Z,98986.81
2022-10-23T09:30:12.811Z,98974.75
2022-10-23T09:32:39.235Z,98972.41
2022-10-23T09:35:06.771Z,98975.44
2022-10-23T09:37:33.855Z,98973.13
2022-10-23T09:40:03.568Z,98968.88
2022-10-23T09:42:30.062Z,98965.31
2022-10-23T09:44:56.524Z,98963.81
2022-10-23T09:47:23.613Z,98958.09
2022-10-23T09:49:51.140Z,98963.13
2022-10-23T09:52:23.219Z,98961.09
2022-10-23T09:54:52.906Z,98946.66
2022-10-23T09:57:23.018Z,98951.66
2022-10-23T09:59:50.783Z,98955.84
2022-10-23T10:02:20.039Z,98953.84
2022-10-23T10:04:46.407Z,98949.97
2022-10-23T10:07:18.422Z,98947.94
2022-10-23T10:09:44.834Z,98939.25
2022-10-23T10:12:18.400Z,98926.84
2022-10-23T10:14:53.910Z,98922.69
2022-10-23T10:17:24.381Z,98918.84
2022-10-23T10:19:57.705Z,98929.94
2022-10-23T10:22:28.611Z,98923.91
2022-10-23T10:24:57.959Z,98920.53
2022-10-23T10:27:34.810Z,98928.94
2022-10-23T10:30:07.814Z,98930.97
2022-10-23T10:32:38.734Z,98916.34
2022-10-23T10:35:16.743Z,98909.94
2022-10-23T10:37:49.718Z,98899.69
2022-10-23T10:40:21.516Z,98907.06
2022-10-23T10:42:56.018Z,98899.50
2022-10-23T10:45:31.192Z,98890.25
2022-10-23T10:48:03.492Z,98889.38
2022-10-23T10:50:32.822Z,98888.06
2022-10-23T10:53:04.498Z,98893.03
2022-10-23T10:55:33.554Z,98881.94
2022-10-23T10:58:03.076Z,98881.59
2022-10-23T11:00:33.185Z,98870.69
2022-10-23T11:03:01.243Z,98867.53
2022-10-23T11:05:30.899Z,98859.84
2022-10-23T11:08:00.045Z,98854.53
2022-10-23T11:10:27.132Z,98854.03
2022-10-23T11:12:53.548Z,98852.72
2022-10-23T11:15:22.273Z,98841.31
2022-10-23T11:17:51.163Z,98850.56
2022-10-23T11:20:25.587Z,98839.34
2022-10-23T11:22:57.508Z,98837.66
2022-10-23T11:25:31.757Z,98839.00
2022-10-23T11:28:10.499Z,98833.84
2022-10-23T11:30:43.620Z,98817.53
2022-10-23T11:33:31.833Z,98830.75
2022-10-23T11:36:04.982Z,98811.06
2022-10-23T11:38:33.149Z,98806.19
2022-10-23T11:41:00.897Z,98803.97
2022-10-23T11:43:29.159Z,98800.25
2022-10-23T11:45:55.544Z,98795.56
2022-10-23T11:48:35.239Z,98789.47
2022-10-23T11:51:05.081Z,98776.69
2022-10-23T11:53:39.719Z,98772.34
2022-10-23T11:56:23.584Z,98780.06
2022-10-23T11:58:50.914Z,98767.94
2022-10-23T12:01:22.598Z,98754.22
2022-10-23T12:03:52.412Z,98755.47
2022-10-23T12:06:23.220Z,98746.25
2022-10-23T12:08:52.022Z,98743.09
2022-10-23T12:11:27.622Z,98741.59
2022-10-23T12:13:54.247Z,98739.25
2022-10-23T12:16:20.634Z,98730.72
2022-10-23T12:18:48.747Z,98716.81
2022-10-23T12:21:18.685Z,98725.88
2022-10-23T12:23:52.629Z,98721.19
2022-10-23T12:26:44.200Z,98694.28
2022-10-23T12:29:17.022Z,98684.69
2022-10-23T12:31:48.352Z,98679.78
2022-10-23T12:34:22.804Z,98684.59
2022-10-23T12:36:59.668Z,98684.25
2022-10-23T12:39:28.913Z,98700.00
2022-10-23T12:41:56.215Z,98718.63
2022-10-23T12:44:22.885Z,98716.59
2022-10-23T12:46:50.999Z,98724.31
2022-10-23T12:49:19.470Z,98782.84
2022-10-23T12:51:54.033Z,98834.63
2022-10-23T12:54:22.055Z,98763.31
2022-10-23T12:56:48.474Z,98790.41
2022-10-23T12:59:16.394Z,98708.72
2022-10-23T13:01:43.476Z,98711.56
2022-10-23T13:04:15.374Z,98696.00
2022-10-23T13:06:41.949Z,98689.97
2022-10-23T13:09:16.669Z,98676.88
2022-10-23T13:11:44.529Z,98662.94
2022-10-23T13:14:11.648Z,98671.13
2022-10-23T13:16:38.014Z,98663.34
2022-10-23T13:19:04.472Z,98654.94
2022-10-23T13:21:31.209Z,98639.50
2022-10-23T13:23:57.964Z,98636.41
2022-10-23T13:26:25.848Z,98635.41
2022-10-23T13:28:54.078Z,98617.09
2022-10-23T13:31:29.444Z,98613.38
2022-10-23T13:34:05.535Z,98636.16
2022-10-23T13:36:34.352Z,98637.00
2022-10-23T13:39:02.040Z,98630.63
2022-10-23T13:41:29.483Z,98626.91
2022-10-23T13:43:57.961Z,98625.78
2022-10-23T13:46:24.632Z,98625.19
2022-10-23T13:48:51.814Z,98628.44
2022-10-23T13:51:19.699Z,98621.97
2022-10-23T13:53:46.153Z,98619.44
2022-10-23T13:56:13.767Z,98641.28
2022-10-23T13:58:40.242Z,98648.84
2022-10-23T14:01:12.628Z,98649.69
2022-10-23T14:03:39.216Z,98646.47
2022-10-23T14:06:05.795Z,98657.34
2022-10-23T14:08:32.250Z,98657.81
2022-10-23T14:10:58.681Z,98661.81
2022-10-23T14:13:25.070Z,98666.97
2022-10-23T14:15:53.668Z,98675.50
2022-10-23T14:18:21.419Z,98680.72
2022-10-23T14:20:47.843Z,98691.28
2022-10-23T14:23:14.367Z,98682.03
2022-10-23T14:25:40.849Z,98693.25
2022-10-23T14:28:07.171Z,98695.94
2022-10-23T14:30:36.106Z,98687.03
2022-10-23T14:33:02.602Z,98685.22
2022-10-23T14:35:30.306Z,98689.03
2022-10-23T14:37:56.681Z,98694.94
2022-10-23T14:40:23.085Z,98693.59
2022-10-23T14:42:49.419Z,98695.81
2022-10-23T14:45:16.007Z,98681.75
2022-10-23T14:47:43.108Z,98690.31
2022-10-23T14:50:10.919Z,98708.28
2022-10-23T14:52:38.676Z,98704.06
2022-10-23T14:55:05.213Z,98690.75
2022-10-23T14:57:34.065Z,98692.06
2022-10-23T15:00:00.395Z,98695.22
2022-10-23T15:02:26.855Z,98697.72
2022-10-23T15:04:53.157Z,98693.84
2022-10-23T15:07:19.715Z,98699.88
2022-10-23T15:09:47.357Z,98710.28
2022-10-23T15:12:13.689Z,98706.56
2022-10-23T15:14:40.050Z,98705.38
2022-10-23T15:17:06.374Z,98710.56
2022-10-23T15:19:32.887Z,98704.34
2022-10-23T15:21:59.197Z,98711.22
2022-10-23T15:24:25.535Z,98704.22
2022-10-23T15:26:53.225Z,98700.94
2022-10-23T15:29:19.665Z,98703.34
2022-10-23T15:31:47.304Z,98703.69
2022-10-23T15:34:15.023Z,98693.31
2022-10-23T15:36:41.631Z,98697.19
2022-10-23T15:39:08.729Z,98694.84
2022-10-23T15:41:37.637Z,98702.06
2022-10-23T15:44:06.273Z,98705.13
2022-10-23T15:46:32.738Z,98708.81
2022-10-23T15:48:59.228Z,98707.28
2022-10-23T15:51:25.862Z,98715.44
2022-10-23T15:53:52.170Z,98720.28
2022-10-23T15:56:18.791Z,98719.13
2022-10-23T15:58:45.448Z,98721.25
2022-10-23T16:01:13.271Z,98712.16
2022-10-23T16:03:39.685Z,98718.22
2022-10-23T16:06:07.883Z,98714.31
2022-10-23T16:08:34.257Z,98701.75
2022-10-23T16:11:00.658Z,98714.97
2022-10-23T16:13:27.033Z,98694.31
2022-10-23T16:15:53.473Z,98690.44
2022-10-23T16:18:21.892Z,98685.06
2022-10-23T16:20:48.293Z,98691.50
2022-10-23T16:23:14.714Z,98682.69
2022-10-23T16:25:41.028Z,98685.06
2022-10-23T16:28:07.375Z,98683.94
2022-10-23T16:30:33.684Z,98683.28
2022-10-23T16:33:00.102Z,98672.06
2022-10-23T16:35:27.752Z,98674.94
2022-10-23T16:37:54.168Z,98670.88
2022-10-23T16:40:20.502Z,98665.63
2022-10-23T16:42:47.060Z,98669.44
2022-10-23T16:45:13.569Z,98668.25
2022-10-23T16:47:39.936Z,98666.88
2022-10-23T16:50:06.691Z,98674.75
2022-10-23T16:52:34.566Z,98679.09
2022-10-23T16:55:01.474Z,98677.09
2022-10-23T16:57:27.821Z,98676.69
2022-10-23T16:59:54.785Z,98680.06
2022-10-23T17:02:21.324Z,98674.69
2022-10-23T17:04:48.303Z,98690.81
2022-10-23T17:07:14.712Z,98698.66
2022-10-23T17:09:43.664Z,98699.88
2022-10-23T17:12:10.094Z,98695.94
2022-10-23T17:14:36.406Z,98710.06
2022-10-23T17:17:02.757Z,98720.53
2022-10-23T17:19:46.245Z,98721.69
2022-10-23T17:22:13.293Z,98720.88
2022-10-23T17:24:40.759Z,98716.47
2022-10-23T17:27:08.652Z,98713.91
2022-10-23T17:29:35.699Z,98724.47
2022-10-23T17:32:02.076Z,98721.41
2022-10-23T17:34:28.481Z,98720.22
2022-10-23T17:36:55.397Z,98739.69
2022-10-23T17:39:23.988Z,98718.84
2022-10-23T17:41:50.951Z,98731.44
2022-10-23T17:44:18.571Z,98719.69
2022-10-23T17:46:44.903Z,98740.81
2022-10-23T17:49:11.299Z,98739.50
2022-10-23T17:51:37.816Z,98732.69
2022-10-23T17:54:05.866Z,98731.94
2022-10-23T17:56:33.160Z,98739.66
2022-10-23T17:59:00.497Z,98726.59
2022-10-23T18:01:28.983Z,98740.38
2022-10-23T18:03:56.575Z,98738.06
2022-10-23T18:06:27.275Z,98738.34
2022-10-23T18:08:56.054Z,98740.00
2022-10-23T18:11:23.566Z,98743.16
2022-10-23T18:13:50.301Z,98763.25
2022-10-23T18:16:17.231Z,98751.34
2022-10-23T18:18:45.496Z,98764.56
2022-10-23T18:21:11.869Z,98768.09
2022-10-23T18:23:38.586Z,98766.06
2022-10-23T18:26:05.537Z,98771.09
2022-10-23T18:28:32.312Z,98758.66
2022-10-23T18:30:58.735Z,98755.63
2022-10-23T18:33:25.064Z,98753.78
2022-10-23T18:35:52.693Z,98753.28
2022-10-23T18:38:19.116Z,98757.41
2022-10-23T18:40:45.566Z,98754.75
2022-10-23T18:43:15.176Z,98752.59
2022-10-23T18:45:46.291Z,98747.78
2022-10-23T18:48:12.606Z,98755.00
2022-10-23T18:50:38.952Z,98744.41
2022-10-23T18:53:06.565Z,98763.97
2022-10-23T18:58:00.328Z,98766.59
2022-10-23T19:00:26.673Z,98770.97
2022-10-23T19:02:53.220Z,98770.78
2022-10-23T19:05:19.577Z,98762.38
2022-10-23T19:07:46.396Z,98773.13
2022-10-23T19:10:15.420Z,98760.16
2022-10-23T19:12:42.287Z,98773.41
2022-10-23T19:15:09.294Z,98759.34
2022-10-23T19:17:35.934Z,98759.97
2022-10-23T19:20:05.490Z,98773.47
2022-10-23T19:22:34.081Z,98780.25
2022-10-23T19:25:02.470Z,98767.88
2022-10-23T19:27:30.138Z,98761.19
2022-10-23T19:29:58.553Z,98761.34
2022-10-23T19:32:24.872Z,98764.19
2022-10-23T19:34:51.305Z,98758.13
2022-10-23T19:37:17.641Z,98760.25
2022-10-23T19:39:43.936Z,98775.66
2022-10-23T19:42:10.245Z,98749.66
2022-10-23T19:44:38.058Z,98760.38
2022-10-23T19:47:04.402Z,98761.88
2022-10-23T19:49:30.865Z,98755.50
2022-10-23T19:51:57.355Z,98758.03
2022-10-23T19:54:23.682Z,98771.25
2022-10-23T19:56:50.100Z,98767.38
2022-10-23T19:59:16.644Z,98766.38
2022-10-23T20:01:47.833Z,98760.50
2022-10-23T20:04:15.870Z,98771.00
2022-10-23T20:06:42.307Z,98764.84
2022-10-23T20:09:09.019Z,98772.44
2022-10-23T20:11:37.056Z,98777.31
2022-10-23T20:14:03.843Z,98769.78
2022-10-23T20:16:31.504Z,98782.50
2022-10-23T20:19:01.359Z,98770.03
2022-10-23T20:21:27.709Z,98779.06
2022-10-23T20:23:56.139Z,98776.84
2022-10-23T20:26:22.436Z,98790.13
2022-10-23T20:28:51.526Z,98788.94
2022-10-23T20:31:18.661Z,98786.88
2022-10-23T20:33:45.411Z,98785.03
2022-10-23T20:36:21.427Z,98784.06
2022-10-23T20:38:47.848Z,98781.16
2022-10-23T20:41:14.184Z,98783.84
2022-10-23T20:43:40.559Z,98796.94
2022-10-23T20:46:08.077Z,98795.84
2022-10-23T20:48:34.883Z,98788.34
2022-10-23T20:51:02.343Z,98782.69
2022-10-23T20:53:29.979Z,98799.13
2022-10-23T20:55:56.359Z,98797.47
2022-10-23T20:58:22.745Z,98798.44
2022-10-23T21:00:49.102Z,98805.63
2022-10-23T21:03:15.665Z,98813.13
2022-10-23T21:05:41.997Z,98803.69
2022-10-23T21:08:08.308Z,98820.69
2022-10-23T21:10:36.028Z,98821.31
2022-10-23T21:13:02.384Z,98821.16
2022-10-23T21:15:28.709Z,98828.19
2022-10-23T21:17:55.062Z,98844.31
2022-10-23T21:20:21.491Z,98863.59
2022-10-23T21:22:47.801Z,98853.88
2022-10-23T21:25:14.135Z,98870.00
2022-10-23T21:27:42.167Z,98864.81
2022-10-23T21:30:09.189Z,98870.94
2022-10-23T21:32:35.560Z,98868.09
2022-10-23T21:35:01.959Z,98866.78
2022-10-23T21:37:28.291Z,98879.34
2022-10-23T21:39:54.606Z,98872.16
2022-10-23T21:42:21.043Z,98883.03
2022-10-23T21:44:48.668Z,98886.03
2022-10-23T21:47:14.991Z,98887.19
2022-10-23T21:49:41.330Z,98887.84
2022-10-23T21:52:07.868Z,98892.03
2022-10-23T21:54:34.229Z,98893.34
2022-10-23T21:57:00.555Z,98883.44
2022-10-23T21:59:29.101Z,98888.81
2022-10-23T22:01:59.604Z,98887.63
2022-10-23T22:04:26.054Z,98889.28
2022-10-23T22:06:52.387Z,98898.19
2022-10-23T22:09:19.909Z,98900.88
2022-10-23T22:11:46.589Z,98911.47
2022-10-23T22:14:13.061Z,98923.06
2022-10-23T22:16:39.460Z,98933.50
2022-10-23T22:19:07.562Z,98935.03
2022-10-23T22:21:33.901Z,98949.13
2022-10-23T22:24:00.843Z,98957.56
2022-10-23T22:26:28.783Z,98956.00
2022-10-23T22:28:56.456Z,98950.81
2022-10-23T22:31:23.927Z,98950.13
2022-10-23T22:33:50.701Z,98964.19
2022-10-23T22:36:18.794Z,98977.47
2022-10-23T22:38:45.138Z,98965.56
2022-10-23T22:41:12.121Z,98979.28
2022-10-23T22:43:38.748Z,98974.94
2022-10-23T22:46:06.413Z,98973.09
2022-10-23T22:48:32.834Z,98977.63
2022-10-23T22:50:59.227Z,98968.19
2022-10-23T22:53:27.470Z,98976.06
2022-10-23T22:55:54.349Z,98990.72
2022-10-23T22:58:20.691Z,98986.69
2022-10-23T23:00:47.926Z,98981.69
2022-10-23T23:03:14.475Z,98990.06
2022-10-23T23:08:08.716Z,98999.66
2022-10-23T23:10:36.356Z,99011.38
2022-10-23T23:13:02.990Z,98997.63
2022-10-23T23:15:29.342Z,99010.53
2022-10-23T23:17:56.084Z,99010.34
2022-10-23T23:20:22.409Z,99004.63
2022-10-23T23:22:48.810Z,99016.72
2022-10-23T23:25:15.263Z,99019.22
2022-10-23T23:27:43.031Z,99020.91
2022-10-23T23:30:09.852Z,99023.59
2022-10-23T23:32:36.446Z,99015.38
2022-10-23T23:35:02.806Z,99024.91
2022-10-23T23:37:29.492Z,99024.91
2022-10-23T23:39:55.910Z,99036.69
2022-10-23T23:42:22.302Z,99031.00
2022-10-23T23:44:56.043Z,99040.56
2022-10-23T23:47:36.223Z,99048.44
2022-10-23T23:50:04.182Z,99046.78
2022-10-23T23:52:30.562Z,99056.53
2022-10-23T23:54:56.923Z,99059.53
2022-10-23T23:57:23.257Z,99057.19
2022-10-23T23:59:51.130Z,99058.66
